Time;durP1;ratioP1;P1;durP2;ratioP2;P2;SDS_P1;SDS_P2;PMS_P1;PMS_P2;Temp;Humidity;BMP_temperature;BMP_pressure;BME280_temperature;BME280_humidity;BME280_pressure;Samples;Min_cycle;Max_cycle;Signal;HPM_P1;HPM_P2
2021/11/07 00:06:52;;;;;;;4.07;2.60;;;;;;;13.48;59.62;101709.59;5010427;28;113801;-77
2021/11/07 00:09:28;;;;;;;5.72;2.70;;;;;;;13.44;59.86;101709.72;4995149;28;115385;-78
2021/11/07 00:11:58;;;;;;;6.30;2.63;;;;;;;13.42;59.88;101703.59;4994166;28;124084;-77
2021/11/07 00:14:27;;;;;;;6.38;2.90;;;;;;;13.40;60.05;101708.13;4998313;28;125091;-75
2021/11/07 00:16:56;;;;;;;3.67;2.70;;;;;;;13.40;60.12;101718.75;4995650;28;114635;-75
2021/11/07 00:24:49;;;;;;;3.65;2.45;;;;;;;13.31;60.39;101713.81;4992194;28;124107;-75
2021/11/07 00:30:12;;;;;;;4.22;2.63;;;;;;;13.31;60.59;101713.81;4990198;28;113917;-75
2021/11/07 00:33:35;;;;;;;3.47;2.47;;;;;;;13.31;60.71;101713.81;4992758;28;124219;-76
2021/11/07 00:38:06;;;;;;;6.95;3.13;;;;;;;13.27;60.77;101706.88;5014889;27;113507;-75
2021/11/07 00:41:07;;;;;;;3.92;2.78;;;;;;;13.26;60.74;101699.84;4991117;28;114381;-76
2021/11/07 00:48:48;;;;;;;;;;;;;;;13.20;60.79;101692.09;4991644;28;114241;-75
2021/11/07 00:54:00;;;;;;;4.00;2.80;;;;;;;13.19;61.21;101687.72;4992449;28;124279;-75
2021/11/07 00:56:38;;;;;;;4.90;3.22;;;;;;;13.17;61.24;101684.28;4993628;28;124423;-75
2021/11/07 01:02:04;;;;;;;4.97;3.10;;;;;;;13.16;61.47;101677.22;4990323;28;115233;-75
2021/11/07 01:04:31;;;;;;;4.72;3.20;;;;;;;13.16;61.45;101680.72;4993137;28;123805;-76
2021/11/07 01:06:59;;;;;;;4.80;3.00;;;;;;;13.15;61.46;101680.81;4995195;28;123405;-76
2021/11/07 01:09:26;;;;;;;6.70;3.15;;;;;;;13.15;61.59;101696.78;4976100;28;112982;-75
2021/11/07 01:11:56;;;;;;;5.88;3.20;;;;;;;13.15;61.69;101676.34;4998123;28;113601;-75
2021/11/07 01:14:23;;;;;;;6.05;3.15;;;;;;;13.16;61.69;101679.88;4998094;28;123848;-76
2021/11/07 01:16:51;;;;;;;5.40;3.30;;;;;;;13.14;61.83;101673.75;4992998;28;123716;-75
2021/11/07 01:19:18;;;;;;;6.18;3.17;;;;;;;13.14;61.79;101679.06;4991761;28;114430;-75
2021/11/07 01:21:46;;;;;;;5.38;3.47;;;;;;;13.13;61.94;101687.97;4992155;28;114155;-75
2021/11/07 01:24:33;;;;;;;4.63;3.20;;;;;;;13.14;61.93;101666.63;4992984;28;124774;-75
2021/11/07 01:27:24;;;;;;;5.22;3.30;;;;;;;13.14;61.84;101653.34;4974928;28;123008;-75
2021/11/07 01:29:55;;;;;;;7.72;3.67;;;;;;;13.15;62.06;101643.59;4992234;28;114067;-75
2021/11/07 01:32:24;;;;;;;5.07;3.20;;;;;;;13.15;61.97;101635.59;4979047;28;113781;-76
2021/11/07 01:37:24;;;;;;;6.72;3.45;;;;;;;13.17;62.14;101633.72;5015693;27;124326;-75
2021/11/07 01:40:06;;;;;;;4.97;3.40;;;;;;;13.18;62.32;101635.44;4997807;28;115616;-75
2021/11/07 01:42:35;;;;;;;4.68;3.47;;;;;;;13.18;62.34;101632.78;4989482;28;113985;-75
2021/11/07 01:45:10;;;;;;;6.05;4.00;;;;;;;13.19;62.30;101639.84;4991486;28;123841;-75
2021/11/07 01:47:45;;;;;;;6.55;3.70;;;;;;;13.20;62.46;101620.28;4989089;28;123913;-75
2021/11/07 01:50:12;;;;;;;4.90;3.85;;;;;;;13.22;62.39;101621.06;4996542;28;114693;-75
2021/11/07 01:52:42;;;;;;;5.80;4.28;;;;;;;13.24;62.46;101611.22;4992764;28;114516;-76
2021/11/07 01:55:15;;;;;;;5.75;3.75;;;;;;;13.26;62.61;101609.41;4989792;28;124821;-75
2021/11/07 01:57:43;;;;;;;5.50;4.05;;;;;;;13.27;62.53;101595.16;5059159;22;124181;-74
2021/11/07 02:00:25;;;;;;;6.80;4.30;;;;;;;13.29;62.54;101603.91;5027204;28;114590;-75
2021/11/07 02:02:53;;;;;;;5.70;4.53;;;;;;;13.31;62.58;101591.44;5022612;28;113359;-74
2021/11/07 02:05:20;;;;;;;8.63;4.70;;;;;;;13.31;62.67;101591.44;5021095;27;123130;-75
2021/11/07 02:07:48;;;;;;;5.75;4.53;;;;;;;13.34;62.61;101586.00;5020115;27;122883;-75
2021/11/07 02:10:17;;;;;;;6.88;4.70;;;;;;;13.36;62.70;101575.28;5026508;28;114842;-74
2021/11/07 02:12:46;;;;;;;7.47;4.65;;;;;;;13.37;62.75;101564.59;5002766;28;112842;-75
2021/11/07 02:15:16;;;;;;;6.82;4.90;;;;;;;13.39;62.93;101568.03;5022572;28;123898;-75
2021/11/07 02:17:43;;;;;;;7.15;4.97;;;;;;;13.40;62.68;101551.13;5024282;28;124721;-74
2021/11/07 02:20:14;;;;;;;6.78;4.88;;;;;;;13.41;62.97;101539.56;5019554;28;114273;-74
2021/11/07 02:22:42;;;;;;;8.90;4.97;;;;;;;13.42;62.78;101546.59;5017949;28;112827;-75
2021/11/07 02:25:10;;;;;;;9.15;4.97;;;;;;;13.43;62.75;101558.97;5021038;28;124656;-75
2021/11/07 02:27:39;;;;;;;8.80;5.30;;;;;;;13.44;62.87;101566.00;5021075;28;123146;-73
2021/11/07 02:30:10;;;;;;;8.38;5.30;;;;;;;13.47;62.96;101553.50;5017559;28;113260;-72
2021/11/07 02:32:38;;;;;;;9.60;5.18;;;;;;;13.48;62.95;101560.56;5031204;28;112775;-73
2021/11/07 02:35:05;;;;;;;10.25;5.80;;;;;;;13.48;62.97;101548.09;5024585;28;124724;-73
2021/11/07 02:37:33;;;;;;;9.23;6.05;;;;;;;13.49;62.67;101541.88;5019370;28;123874;-72
2021/11/07 02:40:00;;;;;;;9.18;5.88;;;;;;;13.49;62.97;101543.69;5017582;28;115950;-72
2021/11/07 02:42:27;;;;;;;8.75;5.95;;;;;;;13.52;63.08;101541.72;5019077;28;114696;-72
2021/11/07 02:44:54;;;;;;;9.30;5.95;;;;;;;13.54;63.09;101523.00;5030438;28;124577;-73
2021/11/07 02:47:21;;;;;;;8.55;5.82;;;;;;;13.55;63.12;101524.75;5012737;28;123532;-72
2021/11/07 02:49:49;;;;;;;9.23;6.07;;;;;;;13.58;63.14;101540.56;5016233;28;115076;-72
2021/11/07 02:52:16;;;;;;;10.02;6.15;;;;;;;13.60;63.05;101522.75;5034349;27;113761;-72
2021/11/07 02:54:44;;;;;;;11.05;6.40;;;;;;;13.61;62.96;101513.81;5028191;27;123402;-73
2021/11/07 02:57:20;;;;;;;11.15;6.72;;;;;;;13.62;62.98;101520.88;5018443;27;123029;-71
2021/11/07 02:59:54;;;;;;;;;;;;;;;13.62;62.80;101520.88;5020661;28;114406;-72
2021/11/07 03:02:21;;;;;;;11.73;6.85;;;;;;;13.64;62.77;101524.31;5011456;28;115181;-73
2021/11/07 03:04:49;;;;;;;12.77;6.68;;;;;;;13.64;62.97;101524.31;5005204;28;124209;-72
2021/11/07 03:07:17;;;;;;;9.50;6.40;;;;;;;13.63;63.01;101507.47;5016338;28;122664;-72
2021/11/07 03:09:45;;;;;;;10.80;6.45;;;;;;;13.64;63.02;101497.72;5025949;28;114264;-73
2021/11/07 03:12:13;;;;;;;12.02;7.13;;;;;;;13.65;63.15;101488.78;5021361;28;115068;-72
2021/11/07 03:14:46;;;;;;;15.32;7.38;;;;;;;13.67;63.11;101508.19;5026882;28;124400;-72
2021/11/07 03:17:20;;;;;;;10.82;7.10;;;;;;;13.68;63.22;101504.59;5014862;28;124064;-73
2021/11/07 03:19:49;;;;;;;15.30;7.15;;;;;;;13.71;63.12;101493.81;5009100;28;114168;-73
2021/11/07 03:22:20;;;;;;;10.05;6.70;;;;;;;13.73;63.26;101496.38;5025885;28;113946;-74
2021/11/07 03:24:54;;;;;;;10.40;6.60;;;;;;;13.74;63.22;101493.66;5016359;28;125781;-74
2021/11/07 03:27:38;;;;;;;11.68;7.10;;;;;;;13.74;63.13;101498.97;5028290;28;124633;-72
2021/11/07 03:30:44;;;;;;;12.10;7.30;;;;;;;13.75;63.05;101500.72;5018835;28;114883;-74
2021/11/07 03:33:20;;;;;;;10.87;6.97;;;;;;;13.75;63.14;101486.53;5024721;28;114914;-73
2021/11/07 03:35:48;;;;;;;11.88;7.90;;;;;;;13.78;63.23;101507.69;5012005;28;123416;-73
2021/11/07 03:38:16;;;;;;;11.98;7.60;;;;;;;13.77;63.26;101504.16;5029653;28;125176;-73
2021/11/07 03:40:43;;;;;;;12.18;8.00;;;;;;;13.78;63.30;101484.59;5023989;28;114222;-72
2021/11/07 03:43:10;;;;;;;14.30;8.20;;;;;;;13.80;63.29;101481.84;5023757;28;113971;-73
2021/11/07 03:45:38;;;;;;;11.75;7.82;;;;;;;13.82;63.31;101490.63;5020009;28;123486;-72
2021/11/07 03:48:06;;;;;;;12.75;8.00;;;;;;;13.83;63.37;101498.53;5022985;28;123647;-73
2021/11/07 03:50:34;;;;;;;12.27;8.23;;;;;;;13.85;63.35;101485.16;5025991;28;113215;-72
2021/11/07 03:53:01;;;;;;;12.77;7.55;;;;;;;13.86;63.47;101491.34;5026575;28;114088;-73
2021/11/07 03:55:28;;;;;;;14.15;8.00;;;;;;;13.86;63.48;101486.00;5020737;27;123703;-72
2021/11/07 03:57:56;;;;;;;12.88;8.65;;;;;;;13.89;63.50;101485.88;5024302;28;124237;-73
2021/11/07 04:00:24;;;;;;;13.77;7.75;;;;;;;13.90;63.56;101476.94;5023548;28;112625;-73
2021/11/07 04:02:51;;;;;;;12.77;8.38;;;;;;;13.92;63.62;101477.72;5031256;27;113834;-73
2021/11/07 04:05:21;;;;;;;12.30;8.07;;;;;;;13.94;63.42;101478.53;5004119;28;123995;-73
2021/11/07 04:07:48;;;;;;;12.00;7.80;;;;;;;13.94;63.58;101457.22;5021951;28;124032;-73
2021/11/07 04:10:15;;;;;;;16.00;8.70;;;;;;;13.96;63.47;101455.34;5021962;28;114427;-73
2021/11/07 04:12:44;;;;;;;13.48;7.90;;;;;;;13.96;63.59;101461.53;5002237;28;114134;-73
2021/11/07 04:15:11;;;;;;;12.50;7.28;;;;;;;13.97;63.42;101457.06;5019166;27;123504;-72
2021/11/07 04:17:39;;;;;;;12.02;7.80;;;;;;;13.97;63.57;101447.25;5021976;28;124485;-73
2021/11/07 04:20:08;;;;;;;15.32;8.40;;;;;;;13.99;63.71;101449.84;5033632;27;114445;-74
2021/11/07 04:22:36;;;;;;;12.65;8.23;;;;;;;13.99;63.59;101445.41;5022983;27;114474;-73
2021/11/07 04:25:05;;;;;;;11.93;7.63;;;;;;;14.00;63.69;101446.25;5014430;28;123665;-73
2021/11/07 04:27:33;;;;;;;15.77;8.00;;;;;;;14.01;63.62;101437.31;5027298;27;123362;-73
2021/11/07 04:30:01;;;;;;;13.75;7.90;;;;;;;14.01;63.65;101442.66;5013910;28;114315;-72
2021/11/07 04:32:28;;;;;;;16.92;8.13;;;;;;;14.04;63.75;101439.84;5019788;28;113464;-73
2021/11/07 04:34:55;;;;;;;13.88;8.00;;;;;;;14.03;63.76;101435.44;5026774;28;123826;-73
2021/11/07 04:37:23;;;;;;;13.68;7.63;;;;;;;14.04;63.79;101442.50;5025649;28;123936;-74
2021/11/07 04:39:50;;;;;;;13.20;8.20;;;;;;;14.05;63.81;101433.56;5017235;28;114732;-73
2021/11/07 04:42:18;;;;;;;14.25;7.72;;;;;;;14.07;63.72;101431.72;5018566;28;113225;-73
2021/11/07 04:44:46;;;;;;;12.73;7.88;;;;;;;14.08;63.71;101438.75;5024244;28;122058;-73
2021/11/07 04:47:13;;;;;;;13.60;7.40;;;;;;;14.08;63.80;101438.75;5019329;28;124142;-73
2021/11/07 04:49:40;;;;;;;10.57;7.45;;;;;;;14.09;63.65;101444.94;5018811;28;117602;-73
2021/11/07 04:52:07;;;;;;;12.35;7.72;;;;;;;14.09;63.85;101435.16;5030960;28;113852;-73
2021/11/07 04:54:34;;;;;;;10.80;7.57;;;;;;;14.10;63.67;101431.53;5024880;28;125114;-73
2021/11/07 04:57:02;;;;;;;11.85;7.55;;;;;;;14.12;63.81;101439.47;5021875;27;123385;-73
2021/11/07 04:59:29;;;;;;;13.00;7.60;;;;;;;14.12;63.97;101434.97;5027369;28;114097;-73
2021/11/07 05:01:56;;;;;;;12.13;7.20;;;;;;;14.14;63.67;101464.22;5028099;28;113880;-74
2021/11/07 05:04:24;;;;;;;13.45;8.23;;;;;;;14.14;63.65;101465.06;5001284;28;123038;-73
2021/11/07 05:06:52;;;;;;;11.95;7.65;;;;;;;14.14;64.01;101442.91;5025240;28;123807;-73
2021/11/07 05:09:19;;;;;;;13.30;8.88;;;;;;;14.14;63.95;101453.56;5010181;28;113985;-73
2021/11/07 05:11:47;;;;;;;15.60;8.43;;;;;;;14.15;64.11;101466.81;5022676;28;114683;-73
2021/11/07 05:14:15;;;;;;;12.88;8.60;;;;;;;14.15;64.02;101445.50;5020684;28;122827;-73
2021/11/07 05:16:42;;;;;;;14.25;9.13;;;;;;;14.18;63.97;101434.69;5029531;28;124108;-73
2021/11/07 05:19:11;;;;;;;16.48;9.35;;;;;;;14.18;64.00;101450.69;5022642;28;114613;-73
2021/11/07 05:21:39;;;;;;;18.80;9.55;;;;;;;14.20;63.84;101427.47;5030729;28;114799;-73
2021/11/07 05:24:06;;;;;;;16.15;9.43;;;;;;;14.20;63.92;101414.16;5028685;28;123850;-73
2021/11/07 05:26:34;;;;;;;16.35;9.68;;;;;;;14.23;63.92;101438.91;5028063;28;124608;-73
2021/11/07 05:29:05;;;;;;;16.80;9.38;;;;;;;14.23;63.79;101446.91;5028140;28;114580;-73
2021/11/07 05:31:32;;;;;;;16.83;9.95;;;;;;;14.21;63.97;101445.19;5031620;28;113883;-73
2021/11/07 05:33:59;;;;;;;17.02;10.38;;;;;;;14.21;63.92;101431.84;5030781;28;123777;-72
2021/11/07 05:36:27;;;;;;;19.25;10.30;;;;;;;14.23;63.81;101433.59;5028008;28;123113;-73
2021/11/07 05:38:54;;;;;;;15.05;10.23;;;;;;;14.20;63.83;101438.13;5028675;27;114536;-73
2021/11/07 05:41:21;;;;;;;18.30;10.02;;;;;;;14.23;63.82;101452.25;5039771;28;113489;-73
2021/11/07 05:43:48;;;;;;;15.25;10.07;;;;;;;14.23;63.83;101446.91;5031081;28;123149;-73
2021/11/07 05:46:16;;;;;;;19.15;10.80;;;;;;;14.24;63.87;101443.28;5016647;27;123295;-73
2021/11/07 05:48:43;;;;;;;17.83;10.30;;;;;;;14.25;63.80;101445.03;5020060;28;114269;-73
2021/11/07 05:51:11;;;;;;;16.90;10.52;;;;;;;14.25;63.83;101439.69;5014735;28;114277;-72
2021/11/07 05:53:38;;;;;;;18.42;10.23;;;;;;;14.24;63.83;101440.63;4996510;28;123439;-72
2021/11/07 05:56:07;;;;;;;20.42;10.65;;;;;;;14.25;63.78;101445.03;5003627;28;123350;-73
2021/11/07 05:58:34;;;;;;;15.90;10.05;;;;;;;14.26;63.74;101446.75;5023812;28;115321;-72
2021/11/07 06:01:02;;;;;;;18.48;9.70;;;;;;;14.26;63.82;101441.41;5027247;27;113989;-73
2021/11/07 06:03:30;;;;;;;19.08;11.20;;;;;;;14.27;63.74;101443.16;5031219;27;123429;-72
2021/11/07 06:05:57;;;;;;;19.27;10.63;;;;;;;14.27;63.78;101440.47;4999336;28;123213;-72
2021/11/07 06:08:24;;;;;;;17.85;10.45;;;;;;;14.25;63.83;101450.38;5024957;27;112231;-72
2021/11/07 06:10:51;;;;;;;19.45;10.38;;;;;;;14.25;63.84;101458.34;5017831;28;114348;-72
2021/11/07 06:13:18;;;;;;;15.95;9.93;;;;;;;14.25;64.00;101461.03;5007651;28;122972;-72
2021/11/07 06:15:46;;;;;;;18.42;11.05;;;;;;;14.25;63.94;101456.53;5019938;28;123879;-74
2021/11/07 06:18:13;;;;;;;18.23;10.40;;;;;;;14.26;63.84;101452.06;5023120;28;114575;-72
2021/11/07 06:20:40;;;;;;;19.13;10.40;;;;;;;14.28;63.83;101450.19;5025359;28;114045;-72
2021/11/07 06:23:09;;;;;;;15.73;10.45;;;;;;;14.27;63.93;101454.66;5023431;28;123838;-73
2021/11/07 06:25:38;;;;;;;20.25;10.73;;;;;;;14.29;64.13;101470.56;5025153;28;123669;-72
2021/11/07 06:28:06;;;;;;;18.67;10.23;;;;;;;14.29;64.05;101462.59;5016807;28;115650;-72
2021/11/07 06:30:34;;;;;;;18.67;10.63;;;;;;;14.31;63.92;101466.03;5016241;28;114492;-73
2021/11/07 06:33:02;;;;;;;19.15;10.70;;;;;;;14.32;63.95;101473.09;5015625;28;124296;-73
2021/11/07 06:35:29;;;;;;;19.40;10.65;;;;;;;14.32;64.18;101478.44;5016508;28;124437;-73
2021/11/07 06:37:57;;;;;;;21.50;10.52;;;;;;;14.35;64.12;101478.25;5019971;28;114044;-72
2021/11/07 06:40:24;;;;;;;16.15;10.13;;;;;;;14.36;63.98;101480.00;5025890;28;114480;-72
2021/11/07 06:42:52;;;;;;;16.98;10.00;;;;;;;14.37;64.02;101484.34;5021918;28;124596;-73
2021/11/07 06:45:19;;;;;;;17.00;10.13;;;;;;;14.39;64.20;101477.16;5032058;27;122796;-73
2021/11/07 06:47:47;;;;;;;20.00;10.00;;;;;;;14.39;64.03;101480.69;5011002;28;115774;-72
2021/11/07 06:50:14;;;;;;;21.17;10.48;;;;;;;14.41;63.98;101483.28;5013416;28;115418;-73
2021/11/07 06:52:44;;;;;;;16.75;9.68;;;;;;;14.42;64.15;101479.66;5013880;28;127765;-73
2021/11/07 06:55:12;;;;;;;17.70;9.68;;;;;;;14.44;64.02;101488.44;5014974;28;123718;-73
2021/11/07 06:57:40;;;;;;;20.23;9.82;;;;;;;14.45;63.98;101490.19;5015857;28;113573;-73
2021/11/07 07:00:13;;;;;;;15.55;9.35;;;;;;;14.45;64.12;101482.19;5016820;28;114603;-73
2021/11/07 07:02:41;;;;;;;17.65;8.70;;;;;;;14.45;64.02;101483.97;5028743;28;124237;-73
2021/11/07 07:05:10;;;;;;;16.77;8.30;;;;;;;14.45;64.01;101484.84;5028859;27;124025;-73
2021/11/07 07:07:42;;;;;;;16.85;8.10;;;;;;;14.46;64.05;101496.38;5020064;28;114026;-74
2021/11/07 07:10:13;;;;;;;14.02;6.72;;;;;;;14.44;64.08;101483.13;5015107;28;113737;-72
2021/11/07 07:15:54;;;;;;;16.45;5.35;;;;;;;14.42;63.99;101498.31;5023832;28;123837;-73
2021/11/07 07:24:45;;;;;;;11.10;3.55;;;;;;;14.40;63.63;101513.53;5026378;27;123119;-75
2021/11/07 07:26:52;;;;;;;15.80;3.53;;;;;;;14.38;63.49;101515.41;5028787;28;124683;-73
2021/11/07 07:35:03;;;;;;;10.25;2.05;;;;;;;14.32;63.15;101510.41;5016920;28;124598;-74
2021/11/07 07:37:31;;;;;;;11.25;2.58;;;;;;;14.30;62.96;101509.63;5019582;27;124459;-73
2021/11/07 07:39:59;;;;;;;13.07;2.20;;;;;;;14.29;62.76;101515.88;5014343;28;115366;-74
2021/11/07 07:42:26;;;;;;;10.10;2.10;;;;;;;14.27;62.55;101523.09;5032812;28;114839;-74
2021/11/07 07:44:53;;;;;;;12.45;2.25;;;;;;;14.24;62.33;101531.22;5033129;27;122788;-74
2021/11/07 07:47:20;;;;;;;9.65;1.98;;;;;;;14.21;62.07;101514.44;5029116;28;124664;-74
2021/11/07 07:49:51;;;;;;;8.77;2.10;;;;;;;14.19;62.07;101516.31;5032493;28;113459;-73
2021/11/07 07:52:22;;;;;;;11.48;1.90;;;;;;;14.18;62.01;101519.06;5027173;28;113713;-74
2021/11/07 07:54:50;;;;;;;13.10;1.90;;;;;;;14.15;61.93;101514.75;5018242;28;124432;-74
2021/11/07 07:57:17;;;;;;;15.88;2.28;;;;;;;14.14;61.77;101529.00;5023529;28;122772;-73
2021/11/07 07:59:44;;;;;;;9.00;1.90;;;;;;;14.11;61.53;101523.84;5025760;28;114305;-74
2021/11/07 08:02:11;;;;;;;10.88;2.10;;;;;;;14.11;61.53;101533.63;5023003;28;113903;-74
2021/11/07 08:04:39;;;;;;;10.23;2.25;;;;;;;14.08;61.45;101529.31;5022707;28;124542;-74
2021/11/07 08:07:06;;;;;;;12.68;1.92;;;;;;;14.07;61.26;101532.94;5031812;27;122945;-74
2021/11/07 08:09:33;;;;;;;10.25;2.10;;;;;;;14.05;61.19;101534.78;5034042;28;114036;-74
2021/11/07 08:12:01;;;;;;;10.32;2.20;;;;;;;14.03;61.16;101528.66;5032579;27;114347;-74
2021/11/07 08:14:28;;;;;;;10.13;1.85;;;;;;;14.01;60.97;101530.53;5021401;28;124376;-74
2021/11/07 08:16:57;;;;;;;9.00;1.90;;;;;;;13.98;61.04;101533.38;5020650;28;123743;-74
2021/11/07 08:19:25;;;;;;;10.30;2.17;;;;;;;13.96;60.95;101540.56;5025585;28;114242;-74
2021/11/07 08:21:53;;;;;;;9.95;2.00;;;;;;;13.94;60.82;101547.78;5035095;28;112329;-74
2021/11/07 08:24:20;;;;;;;9.82;1.80;;;;;;;13.92;60.74;101539.84;5050909;28;123985;-74
2021/11/07 08:26:48;;;;;;;8.50;1.90;;;;;;;13.92;60.37;101545.19;5029939;28;122980;-74
2021/11/07 08:29:17;;;;;;;11.98;2.13;;;;;;;13.91;60.47;101547.91;5053511;28;116112;-73
2021/11/07 08:31:49;;;;;;;12.48;2.22;;;;;;;13.91;60.66;101537.25;5039912;28;114667;-74
2021/11/07 08:34:16;;;;;;;13.65;2.25;;;;;;;13.91;60.72;101543.44;5036911;28;124447;-74
2021/11/07 08:39:18;;;;;;;11.02;2.08;;;;;;;13.96;60.70;101541.44;5036068;27;113384;-74
2021/11/07 08:42:07;;;;;;;11.23;1.92;;;;;;;14.01;60.78;101546.53;5035457;28;114176;-73
2021/11/07 09:09:26;;;;;;;10.38;2.20;;;;;;;14.29;60.22;101547.84;5031063;28;122931;-76
2021/11/07 09:11:57;;;;;;;9.77;2.08;;;;;;;14.31;60.24;101540.63;5032224;28;113003;-72
2021/11/07 09:14:36;;;;;;;18.15;2.42;;;;;;;14.34;59.92;101543.16;5032870;28;113721;-72
2021/11/07 09:17:07;;;;;;;8.93;2.17;;;;;;;14.35;59.74;101547.53;5019648;28;123693;-73
2021/11/07 09:19:37;;;;;;;9.82;1.98;;;;;;;14.37;59.73;101550.97;5028228;28;123329;-74
2021/11/07 09:23:12;;;;;;;11.75;2.47;;;;;;;14.37;59.43;101545.66;5028869;28;115655;-74
2021/11/07 09:25:12;;;;;;;14.55;2.38;;;;;;;14.35;59.32;101552.88;5015640;28;114473;-73
2021/11/07 09:27:54;;;;;;;10.35;2.80;;;;;;;14.34;59.40;101556.50;5032150;28;122703;-74
2021/11/07 09:33:05;;;;;;;9.38;1.92;;;;;;;14.34;59.30;101552.00;5043460;28;113385;-74
2021/11/07 09:38:05;;;;;;;11.45;2.40;;;;;;;14.39;59.38;101550.00;5028343;28;124018;-73
2021/11/07 09:40:36;;;;;;;12.40;2.10;;;;;;;14.44;59.20;101552.41;5006664;28;124005;-74
2021/11/07 09:43:14;;;;;;;10.43;1.75;;;;;;;14.48;59.05;101543.31;5023334;28;114349;-74
2021/11/07 09:45:57;;;;;;;9.32;2.10;;;;;;;14.51;59.00;101548.50;5026431;28;112216;-74
2021/11/07 09:48:28;;;;;;;9.10;1.67;;;;;;;14.51;58.86;101547.66;5032564;28;124010;-74
2021/11/07 09:50:56;;;;;;;12.35;1.92;;;;;;;14.51;58.64;101548.50;5030379;27;123558;-73
2021/11/07 09:53:23;;;;;;;12.60;2.15;;;;;;;14.51;58.64;101537.84;5032706;28;114580;-73
2021/11/07 09:55:52;;;;;;;14.63;2.22;;;;;;;14.53;58.57;101554.63;5032305;28;113568;-74
2021/11/07 09:58:22;;;;;;;9.82;2.60;;;;;;;14.55;58.66;101555.41;5041014;28;123864;-73
2021/11/07 10:00:55;;;;;;;11.10;2.33;;;;;;;14.60;58.65;101553.41;5029538;28;122772;-74
2021/11/07 10:03:25;;;;;;;12.18;2.75;;;;;;;14.66;58.69;101546.91;5031098;28;114551;-73
2021/11/07 10:05:54;;;;;;;9.50;1.77;;;;;;;14.74;58.66;101543.84;5031121;28;113993;-73
2021/11/07 10:08:24;;;;;;;11.48;2.05;;;;;;;14.82;58.90;101546.97;5013069;28;122559;-73
2021/11/07 10:11:01;;;;;;;14.48;2.00;;;;;;;14.92;58.76;101545.56;5029923;27;123387;-74
2021/11/07 10:13:29;;;;;;;10.40;2.05;;;;;;;15.04;58.79;101556.53;5030360;28;114270;-73
2021/11/07 10:16:05;;;;;;;8.82;2.10;;;;;;;15.12;58.64;101556.97;5029917;27;114975;-74
2021/11/07 10:21:23;;;;;;;15.00;2.72;;;;;;;15.23;58.33;101546.59;5025962;28;123999;-74
2021/11/07 10:24:22;;;;;;;9.02;2.03;;;;;;;15.28;57.92;101549.91;5030794;28;114384;-74
2021/11/07 10:27:15;;;;;;;11.45;1.90;;;;;;;15.28;57.84;101544.56;5040398;28;114638;-73
2021/11/07 10:29:49;;;;;;;10.77;1.85;;;;;;;15.28;57.70;101544.56;5030223;27;124012;-74
2021/11/07 10:32:40;;;;;;;8.07;1.83;;;;;;;15.28;57.62;101555.22;5030595;28;123711;-74
2021/11/07 10:38:15;;;;;;;11.90;2.15;;;;;;;15.29;57.49;101562.28;5016286;28;112996;-74
2021/11/07 10:40:59;;;;;;;16.40;2.20;;;;;;;15.29;57.83;101556.94;5032593;28;123604;-73
2021/11/07 10:52:07;;;;;;;11.35;1.83;;;;;;;15.25;57.13;101565.22;5031123;28;124287;-72
2021/11/07 10:54:25;;;;;;;8.00;1.85;;;;;;;15.23;57.25;101546.59;5010121;28;122763;-72
2021/11/07 10:57:31;;;;;;;12.45;1.83;;;;;;;15.21;57.26;101564.50;5020607;28;114277;-73
2021/11/07 11:00:05;;;;;;;;;;;;;;;15.20;57.51;101562.78;4990355;28;113820;-73
2021/11/07 11:02:37;;;;;;;10.40;1.83;;;;;;;15.23;57.15;101551.94;4988232;28;124374;-72
2021/11/07 11:05:18;;;;;;;13.02;1.58;;;;;;;15.23;57.47;101546.59;4999097;28;123889;-73
2021/11/07 11:07:54;;;;;;;7.85;1.63;;;;;;;15.22;56.84;101547.56;5044542;22;114354;-75
2021/11/07 11:10:29;;;;;;;8.10;1.60;;;;;;;15.21;56.78;101542.31;5031057;28;115801;-75
2021/11/07 11:13:06;;;;;;;;;;;;;;;15.16;57.31;101539.88;5029873;28;124076;-76
2021/11/07 11:15:39;;;;;;;9.32;2.30;;;;;;;15.16;56.94;101537.19;5009080;28;124434;-75
2021/11/07 11:24:11;;;;;;;8.57;1.92;;;;;;;15.09;56.54;101546.50;5025034;27;124614;-74
2021/11/07 11:26:47;;;;;;;10.43;1.70;;;;;;;15.08;56.39;101542.09;5023183;28;124050;-75
2021/11/07 11:34:33;;;;;;;11.90;2.30;;;;;;;15.04;56.31;101545.88;5028562;28;123720;-76
2021/11/07 11:37:22;;;;;;;11.30;1.70;;;;;;;15.06;56.31;101541.31;5029107;28;123571;-75
2021/11/07 11:40:04;;;;;;;8.02;2.10;;;;;;;15.08;56.49;101531.41;5018742;28;113448;-75
2021/11/07 11:42:41;;;;;;;8.70;1.85;;;;;;;15.13;56.31;101518.69;5020393;28;113574;-75
2021/11/07 11:45:09;;;;;;;16.15;2.00;;;;;;;15.19;56.40;101518.38;5020650;28;124713;-75
2021/11/07 11:56:43;;;;;;;8.18;1.60;;;;;;;15.42;55.77;101513.59;5015591;28;124178;-76
2021/11/07 11:59:31;;;;;;;8.48;1.75;;;;;;;15.50;56.11;101503.34;5038926;27;123664;-75
2021/11/07 12:02:11;;;;;;;10.45;1.88;;;;;;;15.59;55.84;101494.81;5012588;28;115363;-76
2021/11/07 12:05:11;;;;;;;11.38;1.80;;;;;;;15.67;55.74;101503.28;5028409;28;115187;-75
2021/11/07 12:07:51;;;;;;;10.63;2.10;;;;;;;15.73;55.78;101502.97;5029383;28;123657;-75
2021/11/07 12:10:26;;;;;;;10.75;1.90;;;;;;;15.83;55.60;101513.13;5034231;28;124438;-74
2021/11/07 12:13:01;;;;;;;8.88;1.60;;;;;;;15.90;55.68;101503.84;5024276;28;114363;-74
2021/11/07 12:15:53;;;;;;;9.05;1.75;;;;;;;15.96;55.21;101506.16;5029998;28;113872;-75
2021/11/07 12:18:20;;;;;;;10.07;1.90;;;;;;;16.02;55.00;101497.78;5026782;28;124049;-75
2021/11/07 12:20:56;;;;;;;8.00;1.77;;;;;;;16.04;54.58;101498.53;5033085;27;123892;-75
2021/11/07 12:23:34;;;;;;;6.78;1.60;;;;;;;16.09;54.60;101507.16;5014596;28;113799;-75
2021/11/07 12:26:21;;;;;;;7.97;1.77;;;;;;;16.12;54.45;101507.00;5015582;28;113100;-76
2021/11/07 12:28:49;;;;;;;6.72;2.10;;;;;;;16.12;54.25;101515.00;5035056;27;122680;-75
2021/11/07 12:31:16;;;;;;;7.53;1.48;;;;;;;16.13;54.10;101514.03;5018341;28;123879;-76
2021/11/07 12:33:56;;;;;;;7.18;1.75;;;;;;;16.14;54.12;101506.88;5010089;28;113495;-75
2021/11/07 12:41:39;;;;;;;7.97;1.50;;;;;;;16.23;53.48;101500.16;5021544;28;125550;-75
2021/11/07 12:44:20;;;;;;;6.70;1.58;;;;;;;16.21;53.30;101496.72;5036726;27;113961;-75
2021/11/07 12:47:00;;;;;;;8.23;2.00;;;;;;;16.20;53.11;101494.97;5018691;28;114470;-76
2021/11/07 12:49:30;;;;;;;6.82;1.58;;;;;;;16.21;53.18;101502.06;5014404;28;124375;-76
2021/11/07 12:52:18;;;;;;;10.27;1.88;;;;;;;16.20;53.10;101505.66;5015317;28;124263;-76
2021/11/07 12:54:46;;;;;;;7.57;1.67;;;;;;;16.20;53.18;101505.66;5015887;28;115080;-76
2021/11/07 12:57:18;;;;;;;12.85;2.03;;;;;;;16.19;52.84;101510.16;5019371;28;114921;-76
2021/11/07 12:59:51;;;;;;;9.35;1.92;;;;;;;16.21;53.04;101502.06;5019938;27;122677;-76
2021/11/07 13:02:19;;;;;;;8.63;2.03;;;;;;;16.20;52.92;101500.31;5027312;28;122625;-76
2021/11/07 13:05:03;;;;;;;8.30;1.98;;;;;;;16.21;53.07;101497.56;5031292;27;113646;-75
2021/11/07 13:07:58;;;;;;;14.43;2.42;;;;;;;16.23;52.92;101510.84;5015982;28;114242;-76
2021/11/07 13:11:03;;;;;;;9.18;1.73;;;;;;;16.27;52.95;101507.03;5015731;27;123766;-75
2021/11/07 13:13:41;;;;;;;9.53;2.07;;;;;;;16.32;52.92;101512.97;5020406;28;124558;-78
2021/11/07 13:24:22;;;;;;;9.02;1.85;;;;;;;16.26;52.62;101500.00;5016395;28;123935;-76
2021/11/07 13:27:12;;;;;;;6.87;1.47;;;;;;;16.28;52.52;101517.66;5011505;28;113173;-76
2021/11/07 13:32:22;;;;;;;11.88;2.10;;;;;;;16.26;52.19;101510.69;5019048;27;123441;-76
2021/11/07 13:35:14;;;;;;;14.45;2.17;;;;;;;16.22;52.01;101519.81;5010200;28;122925;-76
2021/11/07 13:37:45;;;;;;;7.85;1.73;;;;;;;16.18;52.05;101512.91;5016406;28;113505;-77
2021/11/07 13:40:19;;;;;;;8.80;2.00;;;;;;;16.13;51.73;101511.38;5018730;28;113309;-76